Windham, New Hampshire
Current Conditions -  °F | °C
As of 12:54 AM on Thursday 18 Dec 2014 (Local Time) from KLWM Reporting Station
Few Clouds Few Clouds  
Wind Chill: 33°   Ceiling: Unl
Heat Index: 39°   Visibility: 10mi
Dew Point: 32°   Wind: 8mph
Humidity: 76%   Direction: 260°W
Pressure: 29.71"   Gusts: NA
Location:  42.8°N, 71.3°W
Report Text: KLWM 180554Z AUTO 26007KT 10SM FEW055 04/00 A2971 RMK AO2 SLP063 T00390000 10067 20033 58004
Loading
Personal Weather Stations






























Interactive Weather Map New forecast layout! Learn more

10-Day Weather Forecast

Advertisements
Track Severe Weather on mobile